createdAt,value
2022-11-22T00:01:25.642Z,3.77
2022-11-22T00:03:54.425Z,3.82
2022-11-22T00:06:22.909Z,3.82
2022-11-22T00:08:51.325Z,3.80
2022-11-22T00:11:21.183Z,3.86
2022-11-22T00:13:49.762Z,3.89
2022-11-22T00:16:18.092Z,3.91
2022-11-22T00:18:46.899Z,3.95
2022-11-22T00:21:15.508Z,3.99
2022-11-22T00:23:44.371Z,4.03
2022-11-22T00:26:13.017Z,4.08
2022-11-22T00:28:43.027Z,4.11
2022-11-22T00:31:11.612Z,4.11
2022-11-22T00:33:40.252Z,4.14
2022-11-22T00:36:08.911Z,4.14
2022-11-22T00:38:37.391Z,4.15
2022-11-22T00:41:06.039Z,4.15
2022-11-22T00:43:34.559Z,4.12
2022-11-22T00:46:04.788Z,4.07
2022-11-22T00:48:33.318Z,4.03
2022-11-22T00:51:01.890Z,4.00
2022-11-22T00:53:30.387Z,4.00
2022-11-22T00:55:58.940Z,4.03
2022-11-22T00:58:27.437Z,4.03
2022-11-22T01:00:56.996Z,4.03
2022-11-22T01:03:27.147Z,4.05
2022-11-22T01:05:55.734Z,4.07
2022-11-22T01:08:24.781Z,4.00
2022-11-22T01:10:57.821Z,3.92
2022-11-22T01:13:27.181Z,3.83
2022-11-22T01:15:56.038Z,3.83
2022-11-22T01:18:24.499Z,3.78
2022-11-22T01:20:54.439Z,3.73
2022-11-22T01:23:23.415Z,3.68
2022-11-22T01:25:51.851Z,3.61
2022-11-22T01:28:21.335Z,3.54
2022-11-22T01:30:52.849Z,3.50
2022-11-22T01:33:22.561Z,3.45
2022-11-22T01:35:51.007Z,3.39
2022-11-22T01:38:20.879Z,3.35
2022-11-22T01:40:49.478Z,3.40
2022-11-22T01:43:20.627Z,3.46
2022-11-22T01:45:52.918Z,3.46
2022-11-22T01:48:50.928Z,3.50
2022-11-22T01:51:26.144Z,3.55
2022-11-22T01:53:59.426Z,3.61
2022-11-22T01:56:29.780Z,3.66
2022-11-22T01:59:01.630Z,3.71
2022-11-22T02:01:31.635Z,3.77
2022-11-22T02:04:04.543Z,3.79
2022-11-22T02:06:41.035Z,3.79
2022-11-22T02:09:13.343Z,3.81
2022-11-22T02:11:48.019Z,3.83
2022-11-22T02:14:20.385Z,3.87
2022-11-22T02:16:50.305Z,3.88
2022-11-22T02:19:25.114Z,3.86
2022-11-22T02:22:01.076Z,3.79
2022-11-22T02:24:41.323Z,3.78
2022-11-22T02:27:11.399Z,3.77
2022-11-22T02:29:41.429Z,3.82
2022-11-22T02:32:09.908Z,3.85
2022-11-22T02:34:46.219Z,3.85
2022-11-22T02:37:19.292Z,3.90
2022-11-22T02:39:51.610Z,3.95
2022-11-22T02:42:21.918Z,3.96
2022-11-22T02:44:50.631Z,4.01
2022-11-22T02:47:19.369Z,4.06
2022-11-22T02:49:47.829Z,4.13
2022-11-22T02:52:18.621Z,4.21
2022-11-22T02:54:46.932Z,4.24
2022-11-22T02:57:15.401Z,4.24
2022-11-22T02:59:45.469Z,4.23
2022-11-22T03:02:14.201Z,4.25
2022-11-22T03:04:42.689Z,4.31
2022-11-22T03:07:11.353Z,4.33
2022-11-22T03:09:39.938Z,4.33
2022-11-22T03:12:08.761Z,4.36
2022-11-22T03:14:37.370Z,4.29
2022-11-22T03:17:07.157Z,4.28
2022-11-22T03:19:35.608Z,4.26
2022-11-22T03:22:03.970Z,4.26
2022-11-22T03:24:32.620Z,4.26
2022-11-22T03:27:01.117Z,4.22
2022-11-22T03:29:29.968Z,4.18
2022-11-22T03:31:58.680Z,4.17
2022-11-22T03:34:28.732Z,4.18
2022-11-22T03:36:57.196Z,4.19
2022-11-22T03:39:25.818Z,4.20
2022-11-22T03:41:56.392Z,4.19
2022-11-22T03:44:24.976Z,4.19
2022-11-22T03:46:53.530Z,4.18
2022-11-22T03:49:22.251Z,4.14
2022-11-22T03:51:52.767Z,4.08
2022-11-22T03:54:21.230Z,4.00
2022-11-22T03:56:49.770Z,3.97
2022-11-22T03:59:18.282Z,3.96
2022-11-22T04:01:46.912Z,3.98
2022-11-22T04:04:15.600Z,3.98
2022-11-22T04:06:44.459Z,3.98
2022-11-22T04:09:14.392Z,3.97
2022-11-22T04:11:43.011Z,3.90
2022-11-22T04:14:31.779Z,3.84
2022-11-22T04:17:00.360Z,3.77
2022-11-22T04:19:29.130Z,3.74
2022-11-22T04:21:56.661Z,3.69
2022-11-22T04:24:44.085Z,3.67
2022-11-22T04:27:12.658Z,3.62
2022-11-22T04:29:41.362Z,3.59
2022-11-22T04:32:27.955Z,3.58
2022-11-22T04:34:56.376Z,3.59
2022-11-22T04:37:24.917Z,3.60
2022-11-22T04:39:54.886Z,3.62
2022-11-22T04:42:40.714Z,3.66
2022-11-22T04:45:11.101Z,3.69
2022-11-22T04:47:56.992Z,3.73
2022-11-22T04:50:57.504Z,3.74
2022-11-22T04:53:27.153Z,3.75
2022-11-22T04:55:57.370Z,3.77
2022-11-22T04:58:25.871Z,3.77
2022-11-22T05:00:54.593Z,3.73
2022-11-22T05:03:23.280Z,3.71
2022-11-22T05:05:51.662Z,3.70
2022-11-22T05:08:20.252Z,3.66
2022-11-22T05:10:58.734Z,3.62
2022-11-22T05:13:31.890Z,3.58
2022-11-22T05:16:01.630Z,3.51
2022-11-22T05:18:31.070Z,3.48
2022-11-22T05:21:00.985Z,3.50
2022-11-22T05:23:49.721Z,3.55
2022-11-22T05:26:18.342Z,3.56
2022-11-22T05:28:48.249Z,3.55
2022-11-22T05:31:18.610Z,3.49
2022-11-22T05:33:47.930Z,3.44
2022-11-22T05:36:16.542Z,3.41
2022-11-22T05:38:45.116Z,3.35
2022-11-22T05:41:15.492Z,3.33
2022-11-22T05:43:44.611Z,3.30
2022-11-22T05:46:21.005Z,3.31
2022-11-22T05:48:52.339Z,3.30
2022-11-22T05:51:26.032Z,3.24
2022-11-22T05:53:56.515Z,3.20
2022-11-22T05:56:26.371Z,3.18
2022-11-22T05:58:55.048Z,3.16
2022-11-22T06:01:26.016Z,3.11
2022-11-22T06:03:55.775Z,3.06
2022-11-22T06:06:24.264Z,3.01
2022-11-22T06:08:55.605Z,2.98
2022-11-22T06:11:26.160Z,2.98
2022-11-22T06:13:56.979Z,2.95
2022-11-22T06:16:28.387Z,2.91
2022-11-22T06:18:57.503Z,2.87
2022-11-22T06:21:29.000Z,2.83
2022-11-22T06:23:57.693Z,2.80
2022-11-22T06:26:26.603Z,2.75
2022-11-22T06:28:56.657Z,2.69
2022-11-22T06:31:28.622Z,2.67
2022-11-22T06:33:59.843Z,2.63
2022-11-22T06:36:30.240Z,2.62
2022-11-22T06:38:59.069Z,2.57
2022-11-22T06:41:29.418Z,2.53
2022-11-22T06:43:58.054Z,2.48
2022-11-22T06:46:28.987Z,2.41
2022-11-22T06:48:57.603Z,2.32
2022-11-22T06:51:28.748Z,2.29
2022-11-22T06:53:58.234Z,2.26
2022-11-22T06:56:30.020Z,2.24
2022-11-22T06:58:59.117Z,2.22
2022-11-22T07:01:31.117Z,2.22
2022-11-22T07:04:00.675Z,2.25
2022-11-22T07:06:30.720Z,2.30
2022-11-22T07:09:00.162Z,2.37
2022-11-22T07:11:30.847Z,2.45
2022-11-22T07:14:07.140Z,2.48
2022-11-22T07:16:39.223Z,2.50
2022-11-22T07:19:08.693Z,2.43
2022-11-22T07:21:38.440Z,2.48
2022-11-22T07:24:08.590Z,2.42
2022-11-22T07:26:37.857Z,2.41
2022-11-22T07:29:06.572Z,2.48
2022-11-22T07:31:35.127Z,2.52
2022-11-22T07:34:05.448Z,2.59
2022-11-22T07:36:37.802Z,2.62
2022-11-22T07:39:06.406Z,2.64
2022-11-22T07:41:35.100Z,2.66
2022-11-22T07:44:04.056Z,2.64
2022-11-22T07:46:33.958Z,2.62
2022-11-22T07:49:05.729Z,2.65
2022-11-22T07:51:35.057Z,2.65
2022-11-22T07:54:03.731Z,2.60
2022-11-22T07:56:34.629Z,2.62
2022-11-22T07:59:03.841Z,2.66
2022-11-22T08:01:34.032Z,2.67
2022-11-22T08:04:02.723Z,2.67
2022-11-22T08:06:33.218Z,2.67
2022-11-22T08:09:02.586Z,2.64
2022-11-22T08:11:31.095Z,2.65
2022-11-22T08:14:01.562Z,2.55
2022-11-22T08:16:32.868Z,2.50
2022-11-22T08:19:03.044Z,2.46
2022-11-22T08:21:33.207Z,2.41
2022-11-22T08:24:08.047Z,2.28
2022-11-22T08:26:37.870Z,2.17
2022-11-22T08:29:13.746Z,2.04
2022-11-22T08:31:43.280Z,2.03
2022-11-22T08:34:11.841Z,2.03
2022-11-22T08:36:41.855Z,2.09
2022-11-22T08:39:10.425Z,2.02
2022-11-22T08:41:39.256Z,2.06
2022-11-22T08:44:07.953Z,2.11
2022-11-22T08:46:36.447Z,2.11
2022-11-22T08:49:06.820Z,2.12
2022-11-22T08:51:37.424Z,2.12
2022-11-22T08:54:08.351Z,2.16
2022-11-22T08:56:36.828Z,2.15
2022-11-22T08:59:05.532Z,2.22
2022-11-22T09:01:34.544Z,2.18
2022-11-22T09:04:03.289Z,2.22
2022-11-22T09:09:37.401Z,2.33
2022-11-22T09:12:07.068Z,2.38
2022-11-22T09:14:35.621Z,2.40
2022-11-22T09:17:06.176Z,2.38
2022-11-22T09:19:34.779Z,2.40
2022-11-22T09:22:03.992Z,2.43
2022-11-22T09:24:34.128Z,2.45
2022-11-22T09:27:02.881Z,2.47
2022-11-22T09:29:31.895Z,2.46
2022-11-22T09:32:00.937Z,2.48
2022-11-22T09:34:29.345Z,2.45
2022-11-22T09:36:58.208Z,2.45
2022-11-22T09:39:27.161Z,2.52
2022-11-22T09:42:25.706Z,2.58
2022-11-22T09:45:16.909Z,2.64
2022-11-22T09:47:56.115Z,2.65
2022-11-22T09:50:33.050Z,2.68
2022-11-22T09:53:06.926Z,2.69
2022-11-22T09:55:42.620Z,2.77
2022-11-22T09:58:18.780Z,2.78
2022-11-22T10:00:52.278Z,2.77
2022-11-22T10:03:30.553Z,2.84
2022-11-22T10:06:03.179Z,2.81
2022-11-22T10:08:40.716Z,2.85
2022-11-22T10:11:17.468Z,2.90
2022-11-22T10:13:54.567Z,2.95
2022-11-22T10:16:32.794Z,2.97
2022-11-22T10:19:11.923Z,3.04
2022-11-22T10:21:40.726Z,3.10
2022-11-22T10:24:15.913Z,3.18
2022-11-22T10:26:45.143Z,3.20
2022-11-22T10:29:30.382Z,3.28
2022-11-22T10:32:09.479Z,3.30
2022-11-22T10:34:52.923Z,3.36
2022-11-22T10:37:32.267Z,3.39
2022-11-22T10:40:09.843Z,3.39
2022-11-22T10:43:05.650Z,3.39
2022-11-22T10:45:39.490Z,3.46
2022-11-22T10:48:21.003Z,3.44
2022-11-22T10:51:03.971Z,3.50
2022-11-22T10:53:47.277Z,3.56
2022-11-22T10:56:24.543Z,3.54
2022-11-22T10:59:29.157Z,3.56
2022-11-22T11:02:05.415Z,3.55
2022-11-22T11:04:39.482Z,3.53
2022-11-22T11:07:13.748Z,3.55
2022-11-22T11:12:43.760Z,3.67
2022-11-22T11:15:21.222Z,3.72
2022-11-22T11:17:56.914Z,3.82
2022-11-22T11:20:28.923Z,3.94
2022-11-22T11:25:47.231Z,4.07
2022-11-22T11:28:21.703Z,4.11
2022-11-22T11:30:54.589Z,4.08
2022-11-22T11:33:27.936Z,4.02
2022-11-22T11:36:08.000Z,4.02
2022-11-22T11:38:39.751Z,3.99
2022-11-22T11:41:21.812Z,3.98
2022-11-22T11:43:51.059Z,4.06
2022-11-22T11:46:22.394Z,3.98
2022-11-22T11:48:52.916Z,3.94
2022-11-22T11:51:39.666Z,3.89
2022-11-22T11:54:13.337Z,3.82
2022-11-22T11:56:48.181Z,3.87
2022-11-22T11:59:19.827Z,3.87
2022-11-22T12:01:55.200Z,3.87
2022-11-22T12:04:28.018Z,3.88
2022-11-22T12:07:04.711Z,3.82
2022-11-22T12:09:37.148Z,3.79
2022-11-22T12:12:33.422Z,3.77
2022-11-22T12:15:12.724Z,3.79
2022-11-22T12:17:50.530Z,3.78
2022-11-22T12:20:24.928Z,3.74
2022-11-22T12:23:07.454Z,3.82
2022-11-22T12:25:39.413Z,3.80
2022-11-22T12:28:20.025Z,3.85
2022-11-22T12:30:53.979Z,3.93
2022-11-22T12:33:29.412Z,3.98
2022-11-22T12:35:59.111Z,4.04
2022-11-22T12:38:34.342Z,4.06
2022-11-22T12:41:07.709Z,4.13
2022-11-22T12:43:42.866Z,4.15
2022-11-22T12:46:16.288Z,4.16
2022-11-22T12:48:51.618Z,4.20
2022-11-22T12:51:28.262Z,4.17
2022-11-22T12:54:03.709Z,4.19
2022-11-22T12:56:41.038Z,4.16
2022-11-22T12:59:21.422Z,4.20
2022-11-22T13:01:53.715Z,4.26
2022-11-22T13:04:30.520Z,4.26
2022-11-22T13:07:09.104Z,4.31
2022-11-22T13:09:47.261Z,4.42
2022-11-22T13:12:18.163Z,4.49
2022-11-22T13:14:50.351Z,4.51
2022-11-22T13:17:20.838Z,4.61
2022-11-22T13:19:55.072Z,4.65
2022-11-22T13:22:33.559Z,4.70
2022-11-22T13:25:22.495Z,4.75
2022-11-22T13:27:53.804Z,4.85
2022-11-22T13:30:25.980Z,4.89
2022-11-22T13:32:56.892Z,4.99
2022-11-22T13:35:32.570Z,4.93
2022-11-22T13:38:07.667Z,4.97
2022-11-22T13:40:47.162Z,4.97
2022-11-22T13:43:52.916Z,4.96
2022-11-22T13:47:02.229Z,4.97
2022-11-22T13:49:46.825Z,4.99
2022-11-22T13:52:35.410Z,5.02
2022-11-22T13:55:30.422Z,4.97
2022-11-22T13:58:40.084Z,4.99
2022-11-22T14:01:46.655Z,4.99
2022-11-22T14:04:37.907Z,5.02
2022-11-22T14:07:21.669Z,5.06
2022-11-22T14:09:57.241Z,5.08
2022-11-22T14:12:55.720Z,5.08
2022-11-22T14:15:36.223Z,5.13
2022-11-22T14:18:22.786Z,5.14
2022-11-22T14:21:04.005Z,5.22
2022-11-22T14:23:42.409Z,5.21
2022-11-22T14:26:22.212Z,5.25
2022-11-22T14:29:17.752Z,5.27
2022-11-22T14:31:56.745Z,5.28
2022-11-22T14:34:29.445Z,5.29
2022-11-22T14:37:32.037Z,5.31
2022-11-22T14:40:14.983Z,5.34
2022-11-22T14:43:00.357Z,5.38
2022-11-22T14:45:39.385Z,5.42
2022-11-22T14:48:18.451Z,5.45
2022-11-22T14:50:53.491Z,5.50
2022-11-22T14:53:30.047Z,5.53
2022-11-22T14:56:06.007Z,5.52
2022-11-22T14:58:39.921Z,5.55
2022-11-22T15:01:49.689Z,5.57
2022-11-22T15:09:13.453Z,5.63
2022-11-22T15:09:22.946Z,5.61
2022-11-22T15:11:38.499Z,5.58
2022-11-22T15:14:45.474Z,5.60
2022-11-22T15:57:53.177Z,5.57
2022-11-22T16:00:25.855Z,5.58
2022-11-22T16:02:57.232Z,5.58
2022-11-22T16:06:09.246Z,5.57
2022-11-22T16:08:22.346Z,5.57
2022-11-22T16:10:52.789Z,5.59
2022-11-22T16:13:34.172Z,5.56
2022-11-22T16:16:09.187Z,5.62
2022-11-22T16:18:37.700Z,5.57
2022-11-22T16:21:20.459Z,5.51
2022-11-22T16:23:49.066Z,5.48
2022-11-22T16:26:25.297Z,5.42
2022-11-22T16:28:57.286Z,5.37
2022-11-22T16:31:27.666Z,5.40
2022-11-22T16:33:58.127Z,5.33
2022-11-22T16:36:31.700Z,5.30
2022-11-22T16:39:00.632Z,5.29
2022-11-22T16:41:30.879Z,5.28
2022-11-22T16:44:03.690Z,5.27
2022-11-22T16:46:32.139Z,5.37
2022-11-22T16:49:01.011Z,5.29
2022-11-22T16:51:31.543Z,5.26
2022-11-22T16:54:01.853Z,5.28
2022-11-22T16:56:33.437Z,5.26
2022-11-22T16:59:07.962Z,5.26
2022-11-22T17:01:41.679Z,5.28
2022-11-22T17:04:21.324Z,5.23
2022-11-22T17:06:49.811Z,5.30
2022-11-22T17:09:18.146Z,5.28
2022-11-22T17:11:46.971Z,5.25
2022-11-22T17:14:19.433Z,5.23
2022-11-22T17:16:48.251Z,5.18
2022-11-22T17:19:51.564Z,5.13
2022-11-22T17:22:07.476Z,5.12
2022-11-22T17:24:36.448Z,5.07
2022-11-22T17:27:04.978Z,5.03
2022-11-22T17:29:49.276Z,4.98
2022-11-22T17:32:18.500Z,4.93
2022-11-22T17:34:47.159Z,4.89
2022-11-22T17:37:16.049Z,4.87
2022-11-22T17:39:44.550Z,4.84
2022-11-22T17:42:13.552Z,4.81
2022-11-22T17:44:43.299Z,4.78
2022-11-22T17:47:12.065Z,4.76
2022-11-22T17:49:40.706Z,4.73
2022-11-22T17:52:09.473Z,4.72
2022-11-22T17:54:39.001Z,4.61
2022-11-22T17:57:07.724Z,4.61
2022-11-22T17:59:36.172Z,4.56
2022-11-22T18:02:06.421Z,4.51
2022-11-22T18:04:34.927Z,4.48
2022-11-22T18:07:03.869Z,4.43
2022-11-22T18:09:34.855Z,4.36
2022-11-22T18:12:03.581Z,4.35
2022-11-22T18:14:32.300Z,4.29
2022-11-22T18:17:01.022Z,4.28
2022-11-22T18:19:31.179Z,4.26
2022-11-22T18:22:00.144Z,4.24
2022-11-22T18:24:29.040Z,4.23
2022-11-22T18:26:57.266Z,4.21
2022-11-22T18:32:14.367Z,4.14
2022-11-22T18:34:44.781Z,4.10
2022-11-22T18:37:13.061Z,4.05
2022-11-22T18:39:42.609Z,4.03
2022-11-22T18:42:14.723Z,4.00
2022-11-22T18:44:43.287Z,3.99
2022-11-22T18:47:12.280Z,3.97
2022-11-22T18:49:40.751Z,3.95
2022-11-22T18:52:14.861Z,3.93
2022-11-22T18:54:45.708Z,3.92
2022-11-22T18:57:14.246Z,3.91
2022-11-22T18:59:42.666Z,3.90
2022-11-22T19:02:11.094Z,3.88
2022-11-22T19:04:39.617Z,3.87
2022-11-22T19:07:09.916Z,3.86
2022-11-22T19:09:38.536Z,3.85
2022-11-22T19:12:07.393Z,3.83
2022-11-22T19:14:35.685Z,3.81
2022-11-22T19:17:04.034Z,3.78
2022-11-22T19:19:33.048Z,3.74
2022-11-22T19:22:02.662Z,3.73
2022-11-22T19:24:32.996Z,3.72
2022-11-22T19:27:01.919Z,3.71
2022-11-22T19:29:31.054Z,3.71
2022-11-22T19:31:59.910Z,3.69
2022-11-22T19:34:30.967Z,3.66
2022-11-22T19:37:02.618Z,3.64
2022-11-22T19:39:33.416Z,3.63
2022-11-22T19:42:02.004Z,3.61
2022-11-22T19:44:31.691Z,3.54
2022-11-22T19:47:00.042Z,3.52
2022-11-22T19:49:29.006Z,3.46
2022-11-22T19:51:57.722Z,3.40
2022-11-22T19:54:26.276Z,3.33
2022-11-22T19:56:56.549Z,3.25
2022-11-22T19:59:25.132Z,3.22
2022-11-22T20:01:53.674Z,3.22
2022-11-22T20:04:22.271Z,3.20
2022-11-22T20:06:50.948Z,3.18
2022-11-22T20:09:19.378Z,3.15
2022-11-22T20:11:48.195Z,3.14
2022-11-22T20:14:17.991Z,3.15
2022-11-22T20:16:46.440Z,3.14
2022-11-22T20:19:16.062Z,3.13
2022-11-22T20:21:45.169Z,3.11
2022-11-22T20:24:14.622Z,3.08
2022-11-22T20:26:43.239Z,3.07
2022-11-22T20:29:16.246Z,3.04
2022-11-22T20:31:46.202Z,3.04
2022-11-22T20:34:16.000Z,3.01
2022-11-22T20:36:44.413Z,3.05
2022-11-22T20:39:13.223Z,3.06
2022-11-22T20:41:41.840Z,3.05
2022-11-22T20:44:14.400Z,3.04
2022-11-22T20:46:43.520Z,2.99
2022-11-22T20:49:13.800Z,2.96
2022-11-22T20:51:43.364Z,2.91
2022-11-22T20:54:12.559Z,2.85
2022-11-22T20:56:41.245Z,2.75
2022-11-22T20:59:09.813Z,2.66
2022-11-22T21:01:39.444Z,2.58
2022-11-22T21:04:08.328Z,2.55
2022-11-22T21:06:38.374Z,2.50
2022-11-22T21:09:06.966Z,2.45
2022-11-22T21:11:35.735Z,2.44
2022-11-22T21:14:04.199Z,2.42
2022-11-22T21:16:33.170Z,2.39
2022-11-22T21:19:05.324Z,2.36
2022-11-22T21:21:36.039Z,2.37
2022-11-22T21:24:08.065Z,2.36
2022-11-22T21:26:36.932Z,2.32
2022-11-22T21:29:15.869Z,2.32
2022-11-22T21:31:45.067Z,2.30
2022-11-22T21:34:18.112Z,2.25
2022-11-22T21:36:46.622Z,2.21
2022-11-22T21:39:17.911Z,2.21
2022-11-22T21:41:46.533Z,2.18
2022-11-22T21:44:15.040Z,2.20
2022-11-22T21:46:44.008Z,2.19
2022-11-22T21:49:16.226Z,2.17
2022-11-22T21:51:49.931Z,2.16
2022-11-22T21:54:22.904Z,2.14
2022-11-22T21:56:52.247Z,2.10
2022-11-22T21:59:20.751Z,2.03
2022-11-22T22:01:49.355Z,2.01
2022-11-22T22:04:18.165Z,2.04
2022-11-22T22:06:46.816Z,2.06
2022-11-22T22:09:15.382Z,2.11
2022-11-22T22:11:49.573Z,2.16
2022-11-22T22:14:17.902Z,2.22
2022-11-22T22:16:46.316Z,2.20
2022-11-22T22:19:15.551Z,2.28
2022-11-22T22:21:44.071Z,2.44
2022-11-22T22:24:12.829Z,2.58
2022-11-22T22:26:42.673Z,2.66
2022-11-22T22:29:12.877Z,2.78
2022-11-22T22:31:41.429Z,2.87
2022-11-22T22:34:09.988Z,2.96
2022-11-22T22:36:38.365Z,3.02
2022-11-22T22:39:06.904Z,3.04
2022-11-22T22:41:35.388Z,2.99
2022-11-22T22:44:03.940Z,2.94
2022-11-22T22:46:33.770Z,2.86
2022-11-22T22:49:02.201Z,2.76
2022-11-22T22:51:33.584Z,2.73
2022-11-22T22:54:03.294Z,2.69
2022-11-22T22:56:33.162Z,2.66
2022-11-22T22:59:01.874Z,2.65
2022-11-22T23:01:32.148Z,2.60
2022-11-22T23:04:03.579Z,2.58
2022-11-22T23:06:34.553Z,2.55
2022-11-22T23:09:03.781Z,2.54
2022-11-22T23:11:51.328Z,2.55
2022-11-22T23:14:21.599Z,2.55
2022-11-22T23:16:54.578Z,2.54
2022-11-22T23:19:28.885Z,2.60
2022-11-22T23:21:58.182Z,2.56
2022-11-22T23:24:26.622Z,2.54
2022-11-22T23:26:55.089Z,2.51
2022-11-22T23:29:23.658Z,2.57
2022-11-22T23:31:52.948Z,2.63
2022-11-22T23:34:21.349Z,2.71
2022-11-22T23:36:51.709Z,2.76
2022-11-22T23:39:20.370Z,2.67
2022-11-22T23:41:48.941Z,2.74
2022-11-22T23:44:17.529Z,2.94
2022-11-22T23:46:46.019Z,3.04
2022-11-22T23:49:14.511Z,3.27
2022-11-22T23:51:43.139Z,3.51
2022-11-22T23:54:13.263Z,3.50
2022-11-22T23:56:42.012Z,3.51
2022-11-22T23:59:11.774Z,3.62
